CheckWX is a tool to help pilots better visualize weather data.  It is not intended as a substitute for an official pre-flight weather briefing.

15:52:05 UTC

KLBE TAF
Arnold Palmer Regional Airport
Latrobe, Pennsylvania, USA
KLBE 291132Z 2912/3012 31003KT P6SM OVC015 TEMPO 2913/2915 OVC030 FM291500 35005KT P6SM OVC050 FM300000 02003KT P6SM BKN250

Jan-29@
12:00 UTC

Jan-29 @ 12:00 UTC

Jan-29@
15:00 UTC

Jan-29 @ 15:00 UTC

KLBE 291132Z 2912/3012 31003KT P6SM OVC015

Expired

Wind
  • 310° at 3 KTS
Cloud Levels
  • Overcast at 1,500' AGL

Jan-29@
13:00 UTC

Jan-29 @ 13:00 UTC

Jan-29@
15:00 UTC

Jan-29 @ 15:00 UTC

TEMPO 2913/2915 OVC030

Expired

Cloud Levels
  • Overcast at 3,000' AGL

Jan-29@
15:00 UTC

Jan-29 @ 15:00 UTC

Jan-30@
00:00 UTC

Jan-30 @ 00:00 UTC

FM291500 35005KT P6SM OVC050

From

From Standard forecast or significant change

Wind
  • 350° at 5 KTS
Cloud Levels
  • Overcast at 5,000' AGL

Jan-30@
00:00 UTC

Jan-30 @ 00:00 UTC

Jan-30@
12:00 UTC

Jan-30 @ 12:00 UTC

FM300000 02003KT P6SM BKN250

From

From Standard forecast or significant change

Wind
  • 020° at 3 KTS
Cloud Levels
  • Broken at 25,000' AGL